sensor_id;sensor_type;location;lat;lon;timestamp;pressure;altitude;pressure_sealevel;temperature;humidity
10064;BME280;5071;52.360;13.134;2023-04-26T00:02:33;100898.44;;;4.15;77.98
10064;BME280;5071;52.360;13.134;2023-04-26T00:07:37;100899.09;;;4.02;78.55
10064;BME280;5071;52.360;13.134;2023-04-26T00:12:39;100904.34;;;4.02;78.54
10064;BME280;5071;52.360;13.134;2023-04-26T00:17:41;100902.47;;;3.95;79.12
10064;BME280;5071;52.360;13.134;2023-04-26T00:22:45;100911.16;;;3.91;79.51
10064;BME280;5071;52.360;13.134;2023-04-26T00:27:47;100896.88;;;3.76;80.18
10064;BME280;5071;52.360;13.134;2023-04-26T00:32:49;100898.59;;;3.74;80.68
10064;BME280;5071;52.360;13.134;2023-04-26T00:37:53;100903.84;;;3.74;80.58
10064;BME280;5071;52.360;13.134;2023-04-26T00:42:56;100910.75;;;3.69;80.62
10064;BME280;5071;52.360;13.134;2023-04-26T00:48:00;100910.84;;;3.75;80.60
10064;BME280;5071;52.360;13.134;2023-04-26T00:53:04;100910.66;;;3.63;81.23
10064;BME280;5071;52.360;13.134;2023-04-26T00:58:07;100914.91;;;3.58;81.55
10064;BME280;5071;52.360;13.134;2023-04-26T01:03:10;100923.72;;;3.61;81.22
10064;BME280;5071;52.360;13.134;2023-04-26T01:08:14;100921.88;;;3.56;81.52
10064;BME280;5071;52.360;13.134;2023-04-26T01:13:16;100925.19;;;3.47;81.84
10064;BME280;5071;52.360;13.134;2023-04-26T01:18:18;100930.44;;;3.45;82.48
10064;BME280;5071;52.360;13.134;2023-04-26T01:23:23;100940.91;;;3.44;82.43
10064;BME280;5071;52.360;13.134;2023-04-26T01:28:25;100935.59;;;3.41;82.81
10064;BME280;5071;52.360;13.134;2023-04-26T01:33:28;100941.59;;;3.35;83.65
10064;BME280;5071;52.360;13.134;2023-04-26T01:38:31;100937.88;;;3.24;83.61
10064;BME280;5071;52.360;13.134;2023-04-26T01:43:33;100945.63;;;3.18;83.97
10064;BME280;5071;52.360;13.134;2023-04-26T01:48:35;100938.47;;;3.10;84.67
10064;BME280;5071;52.360;13.134;2023-04-26T01:53:39;100951.56;;;3.10;84.79
10064;BME280;5071;52.360;13.134;2023-04-26T01:58:41;100940.00;;;3.01;84.93
10064;BME280;5071;52.360;13.134;2023-04-26T02:03:43;100944.31;;;2.97;85.57
10064;BME280;5071;52.360;13.134;2023-04-26T02:08:47;100951.13;;;2.90;86.00
10064;BME280;5071;52.360;13.134;2023-04-26T02:13:49;100948.31;;;2.81;86.63
10064;BME280;5071;52.360;13.134;2023-04-26T02:18:51;100948.47;;;2.89;86.19
10064;BME280;5071;52.360;13.134;2023-04-26T02:23:55;100946.81;;;2.92;86.35
10064;BME280;5071;52.360;13.134;2023-04-26T02:28:58;100941.31;;;2.80;87.07
10064;BME280;5071;52.360;13.134;2023-04-26T02:34:00;100945.47;;;2.70;87.93
10064;BME280;5071;52.360;13.134;2023-04-26T02:39:04;100938.44;;;2.69;87.79
10064;BME280;5071;52.360;13.134;2023-04-26T02:44:06;100933.97;;;2.65;88.22
10064;BME280;5071;52.360;13.134;2023-04-26T02:49:08;100943.34;;;2.54;88.55
10064;BME280;5071;52.360;13.134;2023-04-26T02:54:12;100935.66;;;2.62;88.53
10064;BME280;5071;52.360;13.134;2023-04-26T02:59:14;100945.13;;;2.57;88.77
10064;BME280;5071;52.360;13.134;2023-04-26T03:04:16;100939.63;;;2.46;89.37
10064;BME280;5071;52.360;13.134;2023-04-26T03:09:20;100944.94;;;2.49;89.53
10064;BME280;5071;52.360;13.134;2023-04-26T03:14:22;100943.09;;;2.45;89.53
10064;BME280;5071;52.360;13.134;2023-04-26T03:19:24;100940.75;;;2.57;89.42
10064;BME280;5071;52.360;13.134;2023-04-26T03:24:28;100934.78;;;2.61;89.10
10064;BME280;5071;52.360;13.134;2023-04-26T03:29:30;100947.00;;;2.62;89.42
10064;BME280;5071;52.360;13.134;2023-04-26T03:34:32;100948.81;;;2.65;89.04
10064;BME280;5071;52.360;13.134;2023-04-26T03:39:35;100957.56;;;2.65;89.09
10064;BME280;5071;52.360;13.134;2023-04-26T03:44:38;100947.97;;;2.66;88.91
10064;BME280;5071;52.360;13.134;2023-04-26T03:49:40;100951.50;;;2.68;88.51
10064;BME280;5071;52.360;13.134;2023-04-26T03:54:44;100961.94;;;2.65;88.93
10064;BME280;5071;52.360;13.134;2023-04-26T03:59:47;100967.25;;;2.69;88.60
10064;BME280;5071;52.360;13.134;2023-04-26T04:04:49;100964.81;;;2.77;88.25
10064;BME280;5071;52.360;13.134;2023-04-26T04:09:53;100971.59;;;2.67;88.84
10064;BME280;5071;52.360;13.134;2023-04-26T04:14:55;100976.19;;;2.78;88.64
10064;BME280;5071;52.360;13.134;2023-04-26T04:19:57;100969.97;;;2.72;88.32
10064;BME280;5071;52.360;13.134;2023-04-26T04:25:00;100970.22;;;2.85;88.11
10064;BME280;5071;52.360;13.134;2023-04-26T04:30:04;100981.72;;;2.90;87.78
10064;BME280;5071;52.360;13.134;2023-04-26T04:35:07;100986.47;;;3.06;87.54
10064;BME280;5071;52.360;13.134;2023-04-26T04:40:11;100984.81;;;3.11;87.26
10064;BME280;5071;52.360;13.134;2023-04-26T04:45:14;100993.06;;;3.28;86.56
10064;BME280;5071;52.360;13.134;2023-04-26T04:50:16;101005.81;;;3.54;85.29
10064;BME280;5071;52.360;13.134;2023-04-26T04:55:20;100999.78;;;3.57;85.46
10064;BME280;5071;52.360;13.134;2023-04-26T05:00:22;101006.22;;;4.20;83.34
10064;BME280;5071;52.360;13.134;2023-04-26T05:05:25;101013.53;;;5.57;76.09
10064;BME280;5071;52.360;13.134;2023-04-26T05:10:30;101017.47;;;5.94;73.94
10064;BME280;5071;52.360;13.134;2023-04-26T05:15:32;101010.09;;;6.40;71.00
10064;BME280;5071;52.360;13.134;2023-04-26T05:20:34;101018.38;;;6.85;69.50
10064;BME280;5071;52.360;13.134;2023-04-26T05:25:37;101024.06;;;7.65;66.88
10064;BME280;5071;52.360;13.134;2023-04-26T05:30:39;101021.44;;;7.62;65.76
10064;BME280;5071;52.360;13.134;2023-04-26T05:35:42;101027.41;;;7.27;67.10
10064;BME280;5071;52.360;13.134;2023-04-26T05:40:45;101040.69;;;7.36;67.04
10064;BME280;5071;52.360;13.134;2023-04-26T05:45:50;101041.66;;;7.51;67.08
10064;BME280;5071;52.360;13.134;2023-04-26T05:50:52;101047.94;;;7.90;64.47
10064;BME280;5071;52.360;13.134;2023-04-26T05:55:56;101045.13;;;7.47;66.59
10064;BME280;5071;52.360;13.134;2023-04-26T06:00:58;101052.47;;;8.25;64.62
10064;BME280;5071;52.360;13.134;2023-04-26T06:06:00;101048.88;;;8.04;64.91
10064;BME280;5071;52.360;13.134;2023-04-26T06:11:04;101051.56;;;8.20;63.91
10064;BME280;5071;52.360;13.134;2023-04-26T06:16:06;101049.25;;;6.98;67.73
10064;BME280;5071;52.360;13.134;2023-04-26T06:21:08;101052.28;;;6.43;70.55
10064;BME280;5071;52.360;13.134;2023-04-26T06:26:12;101054.97;;;6.51;71.41
10064;BME280;5071;52.360;13.134;2023-04-26T06:31:14;101063.56;;;6.29;72.17
10064;BME280;5071;52.360;13.134;2023-04-26T06:36:16;101059.84;;;6.10;73.84
10064;BME280;5071;52.360;13.134;2023-04-26T06:41:19;101055.63;;;6.29;73.28
10064;BME280;5071;52.360;13.134;2023-04-26T06:46:21;101051.41;;;6.43;72.25
10064;BME280;5071;52.360;13.134;2023-04-26T06:51:24;101056.75;;;6.52;72.00
10064;BME280;5071;52.360;13.134;2023-04-26T06:56:27;101062.16;;;6.65;70.28
10064;BME280;5071;52.360;13.134;2023-04-26T07:01:31;101066.78;;;6.92;69.87
10064;BME280;5071;52.360;13.134;2023-04-26T07:06:33;101065.38;;;7.42;68.50
10064;BME280;5071;52.360;13.134;2023-04-26T07:11:37;101074.28;;;7.65;67.28
10064;BME280;5071;52.360;13.134;2023-04-26T07:16:39;101070.75;;;7.69;65.95
10064;BME280;5071;52.360;13.134;2023-04-26T07:21:41;101071.59;;;7.56;67.89
10064;BME280;5071;52.360;13.134;2023-04-26T07:26:45;101083.13;;;7.70;66.08
10064;BME280;5071;52.360;13.134;2023-04-26T07:31:47;101085.59;;;7.41;65.47
10064;BME280;5071;52.360;13.134;2023-04-26T07:36:49;101077.88;;;7.83;64.53
10064;BME280;5071;52.360;13.134;2023-04-26T07:41:54;101085.09;;;8.33;63.04
10064;BME280;5071;52.360;13.134;2023-04-26T07:46:56;101093.16;;;9.07;61.17
10064;BME280;5071;52.360;13.134;2023-04-26T07:51:58;101086.09;;;8.93;60.14
10064;BME280;5071;52.360;13.134;2023-04-26T07:57:01;101089.63;;;8.77;62.46
10064;BME280;5071;52.360;13.134;2023-04-26T08:02:03;101095.78;;;9.22;60.59
10064;BME280;5071;52.360;13.134;2023-04-26T08:07:06;101103.72;;;9.01;59.37
10064;BME280;5071;52.360;13.134;2023-04-26T08:12:10;101097.56;;;8.86;59.69
10064;BME280;5071;52.360;13.134;2023-04-26T08:17:12;101109.00;;;8.61;61.86
10064;BME280;5071;52.360;13.134;2023-04-26T08:22:14;101103.56;;;8.11;65.55
10064;BME280;5071;52.360;13.134;2023-04-26T08:27:17;101100.03;;;8.09;61.38
10064;BME280;5071;52.360;13.134;2023-04-26T08:32:20;101110.75;;;8.49;60.32
10064;BME280;5071;52.360;13.134;2023-04-26T08:37:22;101116.09;;;8.92;60.15
10064;BME280;5071;52.360;13.134;2023-04-26T08:42:26;101093.09;;;9.41;57.69
10064;BME280;5071;52.360;13.134;2023-04-26T08:47:37;101108.16;;;8.85;56.05
10064;BME280;5071;52.360;13.134;2023-04-26T08:52:41;101093.13;;;9.25;56.96
10064;BME280;5071;52.360;13.134;2023-04-26T08:57:46;101098.28;;;9.81;55.11
10064;BME280;5071;52.360;13.134;2023-04-26T09:02:49;101105.38;;;9.76;54.45
10064;BME280;5071;52.360;13.134;2023-04-26T09:07:55;101105.50;;;9.22;52.60
10064;BME280;5071;52.360;13.134;2023-04-26T09:12:59;101101.97;;;8.87;55.26
10064;BME280;5071;52.360;13.134;2023-04-26T09:18:18;101107.25;;;9.06;55.81
10064;BME280;5071;52.360;13.134;2023-04-26T09:23:21;101110.81;;;9.22;56.32
10064;BME280;5071;52.360;13.134;2023-04-26T09:28:24;101093.59;;;15.06;42.72
10064;BME280;5071;52.360;13.134;2023-04-26T09:33:26;101090.50;;;13.12;43.81
10064;BME280;5071;52.360;13.134;2023-04-26T09:38:28;101106.94;;;10.23;49.56
10064;BME280;5071;52.360;13.134;2023-04-26T09:43:36;101105.44;;;9.49;53.45
10064;BME280;5071;52.360;13.134;2023-04-26T09:48:38;101103.13;;;15.83;37.45
10064;BME280;5071;52.360;13.134;2023-04-26T09:53:45;101105.09;;;10.43;46.00
10064;BME280;5071;52.360;13.134;2023-04-26T09:58:58;101095.25;;;15.44;39.28
10064;BME280;5071;52.360;13.134;2023-04-26T10:04:01;101092.66;;;14.30;40.48
10064;BME280;5071;52.360;13.134;2023-04-26T10:09:03;101093.13;;;14.09;41.91
10064;BME280;5071;52.360;13.134;2023-04-26T10:14:07;101073.59;;;11.97;42.11
10064;BME280;5071;52.360;13.134;2023-04-26T10:19:09;101080.06;;;14.76;37.26
10064;BME280;5071;52.360;13.134;2023-04-26T10:24:11;101090.00;;;11.55;42.85
10064;BME280;5071;52.360;13.134;2023-04-26T10:29:15;101089.03;;;10.68;45.12
10064;BME280;5071;52.360;13.134;2023-04-26T10:34:18;101085.84;;;12.09;40.49
10064;BME280;5071;52.360;13.134;2023-04-26T10:39:21;101079.00;;;15.85;35.32
10064;BME280;5071;52.360;13.134;2023-04-26T10:44:40;101077.38;;;13.96;38.86
10064;BME280;5071;52.360;13.134;2023-04-26T10:49:43;101081.44;;;11.25;42.54
10064;BME280;5071;52.360;13.134;2023-04-26T10:54:50;101094.59;;;10.19;45.78
10064;BME280;5071;52.360;13.134;2023-04-26T11:00:17;101092.91;;;9.99;48.01
10064;BME280;5071;52.360;13.134;2023-04-26T11:05:33;101099.25;;;9.49;48.74
10064;BME280;5071;52.360;13.134;2023-04-26T11:10:38;101101.81;;;9.86;47.89
10064;BME280;5071;52.360;13.134;2023-04-26T11:15:41;101101.06;;;9.33;50.94
10064;BME280;5071;52.360;13.134;2023-04-26T11:20:43;101111.66;;;8.71;54.73
10064;BME280;5071;52.360;13.134;2023-04-26T11:25:45;101110.78;;;8.75;53.82
10064;BME280;5071;52.360;13.134;2023-04-26T11:30:49;101116.09;;;9.05;52.55
10064;BME280;5071;52.360;13.134;2023-04-26T11:35:53;101123.09;;;9.61;50.75
10064;BME280;5071;52.360;13.134;2023-04-26T11:40:57;101104.69;;;11.02;48.46
10064;BME280;5071;52.360;13.134;2023-04-26T11:46:01;101103.13;;;10.72;47.84
10064;BME280;5071;52.360;13.134;2023-04-26T11:51:05;101111.16;;;10.68;47.99
10064;BME280;5071;52.360;13.134;2023-04-26T11:56:14;101113.75;;;10.73;47.48
10064;BME280;5071;52.360;13.134;2023-04-26T12:01:22;101101.44;;;10.63;48.63
10064;BME280;5071;52.360;13.134;2023-04-26T12:06:28;101122.78;;;10.47;49.49
10064;BME280;5071;52.360;13.134;2023-04-26T12:11:30;101126.50;;;10.00;48.92
10064;BME280;5071;52.360;13.134;2023-04-26T12:16:36;101138.91;;;9.97;49.80
10064;BME280;5071;52.360;13.134;2023-04-26T12:21:41;101134.56;;;9.60;49.38
10064;BME280;5071;52.360;13.134;2023-04-26T12:26:44;101135.38;;;9.87;50.09
10064;BME280;5071;52.360;13.134;2023-04-26T12:31:47;101129.06;;;10.33;50.10
10064;BME280;5071;52.360;13.134;2023-04-26T12:36:49;101132.44;;;10.61;48.38
10064;BME280;5071;52.360;13.134;2023-04-26T12:41:52;101138.88;;;9.98;47.97
10064;BME280;5071;52.360;13.134;2023-04-26T12:46:55;101138.00;;;9.96;48.94
10064;BME280;5071;52.360;13.134;2023-04-26T12:51:57;101133.69;;;9.58;50.11
10064;BME280;5071;52.360;13.134;2023-04-26T12:56:59;101132.66;;;10.04;50.17
10064;BME280;5071;52.360;13.134;2023-04-26T13:02:02;101126.47;;;11.42;50.13
10064;BME280;5071;52.360;13.134;2023-04-26T13:07:05;101124.00;;;12.09;46.20
10064;BME280;5071;52.360;13.134;2023-04-26T13:12:07;101110.38;;;12.32;43.95
10064;BME280;5071;52.360;13.134;2023-04-26T13:17:10;101126.13;;;12.48;42.64
10064;BME280;5071;52.360;13.134;2023-04-26T13:22:14;101122.13;;;12.14;44.30
10064;BME280;5071;52.360;13.134;2023-04-26T13:27:16;101127.22;;;12.34;41.97
10064;BME280;5071;52.360;13.134;2023-04-26T13:32:20;101121.84;;;11.61;43.18
10064;BME280;5071;52.360;13.134;2023-04-26T13:37:22;101121.88;;;11.58;43.81
10064;BME280;5071;52.360;13.134;2023-04-26T13:42:24;101130.66;;;11.66;42.19
10064;BME280;5071;52.360;13.134;2023-04-26T13:47:28;101133.19;;;10.78;43.48
10064;BME280;5071;52.360;13.134;2023-04-26T13:52:30;101145.75;;;10.50;44.87
10064;BME280;5071;52.360;13.134;2023-04-26T13:57:32;101146.00;;;9.93;45.48
10064;BME280;5071;52.360;13.134;2023-04-26T14:02:37;101143.28;;;10.05;46.04
10064;BME280;5071;52.360;13.134;2023-04-26T14:07:39;101145.03;;;10.09;46.15
10064;BME280;5071;52.360;13.134;2023-04-26T14:12:42;101152.91;;;10.34;46.30
10064;BME280;5071;52.360;13.134;2023-04-26T14:17:46;101140.72;;;9.81;47.03
10064;BME280;5071;52.360;13.134;2023-04-26T14:22:48;101151.28;;;9.93;47.61
10064;BME280;5071;52.360;13.134;2023-04-26T14:27:50;101149.22;;;10.63;46.21
10064;BME280;5071;52.360;13.134;2023-04-26T14:32:55;101150.38;;;11.44;44.45
10064;BME280;5071;52.360;13.134;2023-04-26T14:37:58;101143.63;;;11.99;43.59
10064;BME280;5071;52.360;13.134;2023-04-26T14:43:00;101147.13;;;12.01;43.28
10064;BME280;5071;52.360;13.134;2023-04-26T14:48:04;101141.09;;;11.85;42.85
10064;BME280;5071;52.360;13.134;2023-04-26T14:53:06;101132.56;;;11.52;42.80
10064;BME280;5071;52.360;13.134;2023-04-26T14:58:08;101139.38;;;11.81;44.00
10064;BME280;5071;52.360;13.134;2023-04-26T15:03:12;101148.66;;;11.38;42.23
10064;BME280;5071;52.360;13.134;2023-04-26T15:08:14;101119.00;;;10.85;43.26
10064;BME280;5071;52.360;13.134;2023-04-26T15:13:18;101147.94;;;11.18;44.50
10064;BME280;5071;52.360;13.134;2023-04-26T15:18:21;101141.91;;;10.96;45.46
10064;BME280;5071;52.360;13.134;2023-04-26T15:23:24;101151.16;;;10.36;46.20
10064;BME280;5071;52.360;13.134;2023-04-26T15:28:26;101144.88;;;10.51;46.42
10064;BME280;5071;52.360;13.134;2023-04-26T15:33:30;101150.59;;;11.19;44.89
10064;BME280;5071;52.360;13.134;2023-04-26T15:38:33;101147.19;;;11.99;43.67
10064;BME280;5071;52.360;13.134;2023-04-26T15:43:35;101143.06;;;11.66;43.00
10064;BME280;5071;52.360;13.134;2023-04-26T15:48:39;101148.31;;;11.71;43.78
10064;BME280;5071;52.360;13.134;2023-04-26T15:53:41;101145.38;;;12.00;43.67
10064;BME280;5071;52.360;13.134;2023-04-26T15:58:44;101146.41;;;11.85;43.09
10064;BME280;5071;52.360;13.134;2023-04-26T16:03:48;101140.16;;;10.95;44.54
10064;BME280;5071;52.360;13.134;2023-04-26T16:08:50;101153.69;;;10.58;46.52
10064;BME280;5071;52.360;13.134;2023-04-26T16:13:52;101152.03;;;10.34;47.07
10064;BME280;5071;52.360;13.134;2023-04-26T16:18:56;101151.13;;;10.39;46.46
10064;BME280;5071;52.360;13.134;2023-04-26T16:23:58;101154.59;;;10.57;45.84
10064;BME280;5071;52.360;13.134;2023-04-26T16:29:01;101148.59;;;11.43;44.52
10064;BME280;5071;52.360;13.134;2023-04-26T16:34:04;101150.31;;;11.48;44.20
10064;BME280;5071;52.360;13.134;2023-04-26T16:39:06;101146.78;;;11.50;44.78
10064;BME280;5071;52.360;13.134;2023-04-26T16:44:09;101150.09;;;11.72;44.59
10064;BME280;5071;52.360;13.134;2023-04-26T16:49:12;101144.56;;;10.94;45.89
10064;BME280;5071;52.360;13.134;2023-04-26T16:54:14;101156.34;;;10.55;47.38
10064;BME280;5071;52.360;13.134;2023-04-26T16:59:16;101158.19;;;10.42;48.01
10064;BME280;5071;52.360;13.134;2023-04-26T17:04:20;101167.19;;;9.93;49.34
10064;BME280;5071;52.360;13.134;2023-04-26T17:09:22;101158.41;;;9.72;49.73
10064;BME280;5071;52.360;13.134;2023-04-26T17:14:24;101163.69;;;9.79;49.87
10064;BME280;5071;52.360;13.134;2023-04-26T17:19:28;101177.84;;;9.65;50.12
10064;BME280;5071;52.360;13.134;2023-04-26T17:24:30;101177.88;;;9.59;50.99
10064;BME280;5071;52.360;13.134;2023-04-26T17:29:32;101176.97;;;9.69;51.59
10064;BME280;5071;52.360;13.134;2023-04-26T17:34:36;101167.28;;;9.50;52.12
10064;BME280;5071;52.360;13.134;2023-04-26T17:39:38;101171.69;;;9.08;52.88
10064;BME280;5071;52.360;13.134;2023-04-26T17:44:40;101174.31;;;8.83;53.95
10064;BME280;5071;52.360;13.134;2023-04-26T17:49:45;101178.69;;;8.70;54.68
10064;BME280;5071;52.360;13.134;2023-04-26T17:54:47;101189.16;;;8.40;55.49
10064;BME280;5071;52.360;13.134;2023-04-26T17:59:50;101189.13;;;8.30;56.36
10064;BME280;5071;52.360;13.134;2023-04-26T18:04:53;101196.06;;;8.05;57.73
10064;BME280;5071;52.360;13.134;2023-04-26T18:09:55;101193.25;;;7.81;58.51
10064;BME280;5071;52.360;13.134;2023-04-26T18:14:58;101194.91;;;7.63;59.57
10064;BME280;5071;52.360;13.134;2023-04-26T18:20:02;101197.41;;;7.43;60.07
10064;BME280;5071;52.360;13.134;2023-04-26T18:25:04;101196.53;;;7.39;62.19
10064;BME280;5071;52.360;13.134;2023-04-26T18:30:08;101209.66;;;7.30;61.72
10064;BME280;5071;52.360;13.134;2023-04-26T18:35:11;101216.56;;;7.17;63.45
10064;BME280;5071;52.360;13.134;2023-04-26T18:40:14;101230.59;;;7.15;63.43
10064;BME280;5071;52.360;13.134;2023-04-26T18:45:16;101224.41;;;7.10;63.48
10064;BME280;5071;52.360;13.134;2023-04-26T18:50:19;101235.91;;;7.16;63.67
10064;BME280;5071;52.360;13.134;2023-04-26T18:55:21;101242.09;;;7.20;63.88
10064;BME280;5071;52.360;13.134;2023-04-26T19:00:23;101231.50;;;7.17;64.42
10064;BME280;5071;52.360;13.134;2023-04-26T19:05:27;101232.44;;;7.19;64.93
10064;BME280;5071;52.360;13.134;2023-04-26T19:10:29;101236.78;;;7.15;64.74
10064;BME280;5071;52.360;13.134;2023-04-26T19:15:31;101242.91;;;7.13;64.77
10064;BME280;5071;52.360;13.134;2023-04-26T19:20:35;101252.59;;;7.14;65.50
10064;BME280;5071;52.360;13.134;2023-04-26T19:25:37;101251.69;;;7.10;65.64
10064;BME280;5071;52.360;13.134;2023-04-26T19:30:39;101251.63;;;7.06;66.09
10064;BME280;5071;52.360;13.134;2023-04-26T19:35:42;101250.78;;;7.07;66.46
10064;BME280;5071;52.360;13.134;2023-04-26T19:40:45;101247.25;;;7.09;66.72
10064;BME280;5071;52.360;13.134;2023-04-26T19:45:47;101253.47;;;7.10;66.66
10064;BME280;5071;52.360;13.134;2023-04-26T19:50:51;101251.66;;;7.07;66.71
10064;BME280;5071;52.360;13.134;2023-04-26T19:55:53;101259.59;;;7.09;67.14
10064;BME280;5071;52.360;13.134;2023-04-26T20:00:55;101259.59;;;7.09;67.43
10064;BME280;5071;52.360;13.134;2023-04-26T20:05:58;101260.41;;;7.03;67.22
10064;BME280;5071;52.360;13.134;2023-04-26T20:11:01;101264.88;;;7.09;67.03
10064;BME280;5071;52.360;13.134;2023-04-26T20:16:03;101260.47;;;7.09;66.68
10064;BME280;5071;52.360;13.134;2023-04-26T20:21:07;101265.03;;;7.23;66.54
10064;BME280;5071;52.360;13.134;2023-04-26T20:26:09;101266.75;;;7.22;66.42
10064;BME280;5071;52.360;13.134;2023-04-26T20:31:11;101274.84;;;7.36;65.50
10064;BME280;5071;52.360;13.134;2023-04-26T20:36:15;101277.41;;;7.31;65.93
10064;BME280;5071;52.360;13.134;2023-04-26T20:41:17;101279.16;;;7.29;66.08
10064;BME280;5071;52.360;13.134;2023-04-26T20:46:19;101277.41;;;7.28;66.30
10064;BME280;5071;52.360;13.134;2023-04-26T20:51:23;101273.75;;;7.15;66.86
10064;BME280;5071;52.360;13.134;2023-04-26T20:56:24;101280.66;;;7.06;67.15
10064;BME280;5071;52.360;13.134;2023-04-26T21:01:27;101278.91;;;7.05;66.83
10064;BME280;5071;52.360;13.134;2023-04-26T21:06:30;101277.97;;;6.99;67.89
10064;BME280;5071;52.360;13.134;2023-04-26T21:11:32;101276.13;;;6.91;67.87
10064;BME280;5071;52.360;13.134;2023-04-26T21:16:35;101278.69;;;6.86;68.82
10064;BME280;5071;52.360;13.134;2023-04-26T21:21:39;101283.91;;;6.80;69.13
10064;BME280;5071;52.360;13.134;2023-04-26T21:26:41;101282.25;;;6.90;68.08
10064;BME280;5071;52.360;13.134;2023-04-26T21:31:43;101283.25;;;6.99;67.51
10064;BME280;5071;52.360;13.134;2023-04-26T21:36:47;101286.78;;;6.98;67.26
10064;BME280;5071;52.360;13.134;2023-04-26T21:41:49;101279.00;;;7.14;66.03
10064;BME280;5071;52.360;13.134;2023-04-26T21:46:51;101298.44;;;7.19;65.03
10064;BME280;5071;52.360;13.134;2023-04-26T21:51:54;101302.03;;;7.27;64.43
10064;BME280;5071;52.360;13.134;2023-04-26T21:56:56;101295.00;;;7.29;63.80
10064;BME280;5071;52.360;13.134;2023-04-26T22:01:59;101290.53;;;7.24;64.61
10064;BME280;5071;52.360;13.134;2023-04-26T22:07:02;101301.97;;;7.21;65.15
10064;BME280;5071;52.360;13.134;2023-04-26T22:12:04;101301.94;;;7.19;64.95
10064;BME280;5071;52.360;13.134;2023-04-26T22:17:06;101301.94;;;7.18;65.17
10064;BME280;5071;52.360;13.134;2023-04-26T22:22:10;101317.00;;;7.28;64.62
10064;BME280;5071;52.360;13.134;2023-04-26T22:27:12;101315.19;;;7.24;64.84
10064;BME280;5071;52.360;13.134;2023-04-26T22:32:14;101319.50;;;7.16;64.81
10064;BME280;5071;52.360;13.134;2023-04-26T22:37:18;101324.00;;;7.25;64.80
10064;BME280;5071;52.360;13.134;2023-04-26T22:42:22;101333.53;;;7.12;65.12
10064;BME280;5071;52.360;13.134;2023-04-26T22:47:24;101342.44;;;7.20;65.33
10064;BME280;5071;52.360;13.134;2023-04-26T22:52:28;101332.56;;;7.05;65.80
10064;BME280;5071;52.360;13.134;2023-04-26T22:57:32;101342.25;;;7.05;65.54
10064;BME280;5071;52.360;13.134;2023-04-26T23:02:34;101340.47;;;7.04;66.54
10064;BME280;5071;52.360;13.134;2023-04-26T23:07:38;101338.59;;;6.93;66.15
10064;BME280;5071;52.360;13.134;2023-04-26T23:12:40;101350.13;;;7.01;65.82
10064;BME280;5071;52.360;13.134;2023-04-26T23:17:42;101345.63;;;6.94;66.37
10064;BME280;5071;52.360;13.134;2023-04-26T23:22:46;101346.44;;;6.89;66.77
10064;BME280;5071;52.360;13.134;2023-04-26T23:27:48;101348.16;;;6.84;67.43
10064;BME280;5071;52.360;13.134;2023-04-26T23:32:50;101341.97;;;6.83;67.08
10064;BME280;5071;52.360;13.134;2023-04-26T23:37:53;101342.16;;;6.95;66.81
10064;BME280;5071;52.360;13.134;2023-04-26T23:42:56;101345.56;;;6.85;67.46
10064;BME280;5071;52.360;13.134;2023-04-26T23:47:58;101347.44;;;6.95;67.19
10064;BME280;5071;52.360;13.134;2023-04-26T23:53:01;101345.72;;;6.99;66.91
10064;BME280;5071;52.360;13.134;2023-04-26T23:58:03;101339.44;;;6.89;68.00
